sensor_id;sensor_type;location;lat;lon;timestamp;P1;durP1;ratioP1;P2;durP2;ratioP2
18503;SDS011;9381;54.244;10.074;2024-03-23T00:57:08;31.83;;;5.60;;
18503;SDS011;9381;54.244;10.074;2024-03-23T01:02:08;23.67;;;5.07;;
18503;SDS011;9381;54.244;10.074;2024-03-23T01:07:09;27.05;;;5.57;;
18503;SDS011;9381;54.244;10.074;2024-03-23T01:12:09;27.30;;;5.13;;
18503;SDS011;9381;54.244;10.074;2024-03-23T01:17:09;30.53;;;5.40;;
18503;SDS011;9381;54.244;10.074;2024-03-23T01:22:10;31.53;;;5.73;;
18503;SDS011;9381;54.244;10.074;2024-03-23T01:27:10;24.80;;;5.20;;
18503;SDS011;9381;54.244;10.074;2024-03-23T01:32:11;24.80;;;5.50;;
18503;SDS011;9381;54.244;10.074;2024-03-23T01:37:11;21.10;;;4.80;;
18503;SDS011;9381;54.244;10.074;2024-03-23T01:42:11;30.70;;;5.90;;
18503;SDS011;9381;54.244;10.074;2024-03-23T01:47:12;31.70;;;6.22;;
18503;SDS011;9381;54.244;10.074;2024-03-23T01:52:12;27.33;;;5.37;;
18503;SDS011;9381;54.244;10.074;2024-03-23T01:57:12;28.33;;;6.23;;
18503;SDS011;9381;54.244;10.074;2024-03-23T02:02:13;24.33;;;4.07;;
18503;SDS011;9381;54.244;10.074;2024-03-23T02:07:14;26.40;;;4.37;;
18503;SDS011;9381;54.244;10.074;2024-03-23T02:12:14;26.10;;;4.57;;
18503;SDS011;9381;54.244;10.074;2024-03-23T02:17:15;27.63;;;4.90;;
18503;SDS011;9381;54.244;10.074;2024-03-23T02:22:15;27.07;;;4.87;;
18503;SDS011;9381;54.244;10.074;2024-03-23T02:27:16;23.70;;;5.13;;
18503;SDS011;9381;54.244;10.074;2024-03-23T02:32:16;25.58;;;4.22;;
18503;SDS011;9381;54.244;10.074;2024-03-23T02:37:16;29.25;;;4.80;;
18503;SDS011;9381;54.244;10.074;2024-03-23T02:42:17;23.10;;;4.20;;
18503;SDS011;9381;54.244;10.074;2024-03-23T02:47:17;21.30;;;4.83;;
18503;SDS011;9381;54.244;10.074;2024-03-23T02:52:18;24.63;;;5.00;;
18503;SDS011;9381;54.244;10.074;2024-03-23T02:57:18;31.92;;;5.13;;
18503;SDS011;9381;54.244;10.074;2024-03-23T03:02:18;24.57;;;4.70;;
18503;SDS011;9381;54.244;10.074;2024-03-23T03:07:19;37.17;;;5.30;;
18503;SDS011;9381;54.244;10.074;2024-03-23T03:12:20;27.75;;;4.80;;
18503;SDS011;9381;54.244;10.074;2024-03-23T03:17:20;26.08;;;4.13;;
18503;SDS011;9381;54.244;10.074;2024-03-23T03:22:20;33.40;;;4.43;;
18503;SDS011;9381;54.244;10.074;2024-03-23T03:27:21;25.00;;;4.70;;
18503;SDS011;9381;54.244;10.074;2024-03-23T03:32:22;26.43;;;5.03;;
18503;SDS011;9381;54.244;10.074;2024-03-23T03:37:22;32.30;;;5.03;;
18503;SDS011;9381;54.244;10.074;2024-03-23T03:42:23;20.70;;;3.93;;
18503;SDS011;9381;54.244;10.074;2024-03-23T03:47:23;19.50;;;4.65;;
18503;SDS011;9381;54.244;10.074;2024-03-23T03:52:23;23.42;;;4.68;;
18503;SDS011;9381;54.244;10.074;2024-03-23T03:57:24;28.40;;;5.53;;
18503;SDS011;9381;54.244;10.074;2024-03-23T04:02:24;31.97;;;5.90;;
18503;SDS011;9381;54.244;10.074;2024-03-23T04:07:24;28.03;;;5.93;;
18503;SDS011;9381;54.244;10.074;2024-03-23T04:12:25;29.57;;;6.53;;
18503;SDS011;9381;54.244;10.074;2024-03-23T04:17:26;28.83;;;5.93;;
18503;SDS011;9381;54.244;10.074;2024-03-23T04:22:31;29.77;;;6.60;;
18503;SDS011;9381;54.244;10.074;2024-03-23T04:27:32;24.75;;;5.93;;
18503;SDS011;9381;54.244;10.074;2024-03-23T04:32:36;32.03;;;7.43;;
18503;SDS011;9381;54.244;10.074;2024-03-23T04:37:37;33.03;;;8.00;;
18503;SDS011;9381;54.244;10.074;2024-03-23T04:42:40;25.43;;;8.33;;
18503;SDS011;9381;54.244;10.074;2024-03-23T04:47:40;35.73;;;7.97;;
18503;SDS011;9381;54.244;10.074;2024-03-23T04:52:41;32.80;;;8.70;;
18503;SDS011;9381;54.244;10.074;2024-03-23T04:57:41;33.93;;;8.23;;
18503;SDS011;9381;54.244;10.074;2024-03-23T05:02:42;25.95;;;7.60;;
18503;SDS011;9381;54.244;10.074;2024-03-23T05:07:43;33.33;;;8.13;;
18503;SDS011;9381;54.244;10.074;2024-03-23T05:12:44;30.30;;;8.33;;
18503;SDS011;9381;54.244;10.074;2024-03-23T05:17:45;33.93;;;8.33;;
18503;SDS011;9381;54.244;10.074;2024-03-23T05:22:45;34.53;;;8.40;;
18503;SDS011;9381;54.244;10.074;2024-03-23T05:27:46;34.43;;;8.10;;
18503;SDS011;9381;54.244;10.074;2024-03-23T05:32:47;36.17;;;8.80;;
18503;SDS011;9381;54.244;10.074;2024-03-23T05:37:47;29.90;;;9.00;;
18503;SDS011;9381;54.244;10.074;2024-03-23T05:42:47;32.90;;;8.63;;
18503;SDS011;9381;54.244;10.074;2024-03-23T05:47:48;36.80;;;9.20;;
18503;SDS011;9381;54.244;10.074;2024-03-23T05:52:49;29.77;;;8.33;;
18503;SDS011;9381;54.244;10.074;2024-03-23T05:57:50;40.33;;;9.00;;
18503;SDS011;9381;54.244;10.074;2024-03-23T06:02:50;28.90;;;8.03;;
18503;SDS011;9381;54.244;10.074;2024-03-23T06:07:50;37.30;;;8.65;;
18503;SDS011;9381;54.244;10.074;2024-03-23T06:12:51;32.57;;;8.43;;
18503;SDS011;9381;54.244;10.074;2024-03-23T06:17:52;44.10;;;7.60;;
18503;SDS011;9381;54.244;10.074;2024-03-23T06:22:52;38.80;;;8.65;;
18503;SDS011;9381;54.244;10.074;2024-03-23T06:27:52;34.40;;;8.27;;
18503;SDS011;9381;54.244;10.074;2024-03-23T06:32:53;33.67;;;8.50;;
18503;SDS011;9381;54.244;10.074;2024-03-23T06:37:53;37.07;;;8.27;;
18503;SDS011;9381;54.244;10.074;2024-03-23T06:42:53;31.97;;;8.37;;
18503;SDS011;9381;54.244;10.074;2024-03-23T06:47:54;38.27;;;8.73;;
18503;SDS011;9381;54.244;10.074;2024-03-23T06:52:55;38.77;;;9.17;;
18503;SDS011;9381;54.244;10.074;2024-03-23T06:57:55;32.70;;;8.90;;
18503;SDS011;9381;54.244;10.074;2024-03-23T07:02:56;34.50;;;8.77;;
18503;SDS011;9381;54.244;10.074;2024-03-23T07:07:56;43.17;;;9.63;;
18503;SDS011;9381;54.244;10.074;2024-03-23T07:12:56;38.30;;;10.23;;
18503;SDS011;9381;54.244;10.074;2024-03-23T07:17:57;41.77;;;10.10;;
18503;SDS011;9381;54.244;10.074;2024-03-23T07:22:57;28.95;;;8.85;;
18503;SDS011;9381;54.244;10.074;2024-03-23T07:27:57;38.47;;;9.07;;
18503;SDS011;9381;54.244;10.074;2024-03-23T07:32:58;35.27;;;9.40;;
18503;SDS011;9381;54.244;10.074;2024-03-23T07:37:58;27.77;;;8.23;;
18503;SDS011;9381;54.244;10.074;2024-03-23T07:43:05;33.57;;;8.63;;
18503;SDS011;9381;54.244;10.074;2024-03-23T07:48:05;32.07;;;8.77;;
18503;SDS011;9381;54.244;10.074;2024-03-23T07:53:06;31.70;;;8.23;;
18503;SDS011;9381;54.244;10.074;2024-03-23T07:58:07;31.30;;;8.63;;
18503;SDS011;9381;54.244;10.074;2024-03-23T08:03:07;30.47;;;8.57;;
18503;SDS011;9381;54.244;10.074;2024-03-23T08:08:07;32.50;;;8.55;;
18503;SDS011;9381;54.244;10.074;2024-03-23T08:13:07;34.10;;;8.83;;
18503;SDS011;9381;54.244;10.074;2024-03-23T08:18:08;25.98;;;10.00;;
18503;SDS011;9381;54.244;10.074;2024-03-23T08:23:09;29.40;;;9.70;;
18503;SDS011;9381;54.244;10.074;2024-03-23T08:28:10;26.63;;;9.30;;
18503;SDS011;9381;54.244;10.074;2024-03-23T08:33:10;28.30;;;9.70;;
18503;SDS011;9381;54.244;10.074;2024-03-23T08:38:10;28.00;;;9.50;;
18503;SDS011;9381;54.244;10.074;2024-03-23T08:43:11;21.33;;;6.60;;
18503;SDS011;9381;54.244;10.074;2024-03-23T08:48:11;21.40;;;7.20;;
18503;SDS011;9381;54.244;10.074;2024-03-23T08:53:11;20.67;;;5.68;;
18503;SDS011;9381;54.244;10.074;2024-03-23T08:58:12;26.13;;;6.27;;
18503;SDS011;9381;54.244;10.074;2024-03-23T09:03:13;15.73;;;5.10;;
18503;SDS011;9381;54.244;10.074;2024-03-23T09:08:14;20.13;;;4.73;;
18503;SDS011;9381;54.244;10.074;2024-03-23T09:13:14;16.60;;;4.73;;
18503;SDS011;9381;54.244;10.074;2024-03-23T09:18:16;15.43;;;4.00;;
18503;SDS011;9381;54.244;10.074;2024-03-23T09:23:16;19.87;;;4.40;;
18503;SDS011;9381;54.244;10.074;2024-03-23T09:28:17;15.70;;;3.90;;
18503;SDS011;9381;54.244;10.074;2024-03-23T09:33:17;21.03;;;4.07;;
18503;SDS011;9381;54.244;10.074;2024-03-23T09:38:18;13.73;;;3.60;;
18503;SDS011;9381;54.244;10.074;2024-03-23T09:43:18;10.83;;;2.53;;
18503;SDS011;9381;54.244;10.074;2024-03-23T09:48:19;7.87;;;1.87;;
18503;SDS011;9381;54.244;10.074;2024-03-23T09:53:20;4.57;;;1.73;;
18503;SDS011;9381;54.244;10.074;2024-03-23T09:58:23;3.93;;;1.70;;
18503;SDS011;9381;54.244;10.074;2024-03-23T10:03:23;9.10;;;2.00;;
18503;SDS011;9381;54.244;10.074;2024-03-23T10:08:24;7.33;;;2.33;;
18503;SDS011;9381;54.244;10.074;2024-03-23T10:13:26;14.03;;;3.00;;
18503;SDS011;9381;54.244;10.074;2024-03-23T10:18:29;13.17;;;3.37;;
18503;SDS011;9381;54.244;10.074;2024-03-23T10:23:29;15.47;;;3.13;;
18503;SDS011;9381;54.244;10.074;2024-03-23T10:28:30;9.57;;;2.27;;
18503;SDS011;9381;54.244;10.074;2024-03-23T10:33:30;7.90;;;2.30;;
18503;SDS011;9381;54.244;10.074;2024-03-23T10:38:31;9.27;;;2.27;;
18503;SDS011;9381;54.244;10.074;2024-03-23T10:43:32;11.87;;;3.13;;
18503;SDS011;9381;54.244;10.074;2024-03-23T10:48:33;9.93;;;2.70;;
18503;SDS011;9381;54.244;10.074;2024-03-23T10:53:33;16.63;;;3.43;;
18503;SDS011;9381;54.244;10.074;2024-03-23T11:03:46;9.80;;;3.10;;
18503;SDS011;9381;54.244;10.074;2024-03-23T11:08:46;13.23;;;2.80;;
18503;SDS011;9381;54.244;10.074;2024-03-23T11:13:50;8.93;;;2.60;;
18503;SDS011;9381;54.244;10.074;2024-03-23T11:18:51;13.37;;;2.60;;
18503;SDS011;9381;54.244;10.074;2024-03-23T11:23:52;13.05;;;3.13;;
18503;SDS011;9381;54.244;10.074;2024-03-23T11:29:08;12.27;;;2.73;;
18503;SDS011;9381;54.244;10.074;2024-03-23T11:34:09;11.23;;;2.30;;
18503;SDS011;9381;54.244;10.074;2024-03-23T11:39:19;11.53;;;2.77;;
18503;SDS011;9381;54.244;10.074;2024-03-23T11:44:21;10.30;;;1.87;;
18503;SDS011;9381;54.244;10.074;2024-03-23T11:49:26;5.20;;;1.80;;
18503;SDS011;9381;54.244;10.074;2024-03-23T11:54:28;5.17;;;1.60;;
18503;SDS011;9381;54.244;10.074;2024-03-23T11:59:38;6.47;;;1.47;;
18503;SDS011;9381;54.244;10.074;2024-03-23T12:04:44;9.27;;;1.97;;
18503;SDS011;9381;54.244;10.074;2024-03-23T12:09:44;6.23;;;1.87;;
18503;SDS011;9381;54.244;10.074;2024-03-23T12:15:04;9.20;;;1.90;;
18503;SDS011;9381;54.244;10.074;2024-03-23T12:20:06;9.40;;;2.23;;
18503;SDS011;9381;54.244;10.074;2024-03-23T12:25:07;9.50;;;2.27;;
18503;SDS011;9381;54.244;10.074;2024-03-23T12:30:07;9.70;;;2.03;;
18503;SDS011;9381;54.244;10.074;2024-03-23T12:35:09;10.53;;;2.07;;
18503;SDS011;9381;54.244;10.074;2024-03-23T12:40:09;4.93;;;1.90;;
18503;SDS011;9381;54.244;10.074;2024-03-23T12:45:10;10.33;;;2.67;;
18503;SDS011;9381;54.244;10.074;2024-03-23T12:50:10;8.25;;;1.70;;
18503;SDS011;9381;54.244;10.074;2024-03-23T12:55:11;10.47;;;2.27;;
18503;SDS011;9381;54.244;10.074;2024-03-23T13:00:11;10.43;;;2.10;;
18503;SDS011;9381;54.244;10.074;2024-03-23T13:05:12;10.07;;;2.23;;
18503;SDS011;9381;54.244;10.074;2024-03-23T13:10:13;7.83;;;2.47;;
18503;SDS011;9381;54.244;10.074;2024-03-23T13:15:14;8.77;;;2.30;;
18503;SDS011;9381;54.244;10.074;2024-03-23T13:20:16;9.73;;;2.20;;
18503;SDS011;9381;54.244;10.074;2024-03-23T13:25:17;9.40;;;2.28;;
18503;SDS011;9381;54.244;10.074;2024-03-23T13:30:18;11.20;;;2.40;;
18503;SDS011;9381;54.244;10.074;2024-03-23T13:35:19;12.50;;;2.23;;
18503;SDS011;9381;54.244;10.074;2024-03-23T13:40:19;7.77;;;2.20;;
18503;SDS011;9381;54.244;10.074;2024-03-23T13:45:20;9.27;;;2.40;;
18503;SDS011;9381;54.244;10.074;2024-03-23T13:50:20;9.25;;;2.35;;
18503;SDS011;9381;54.244;10.074;2024-03-23T13:55:21;11.47;;;2.60;;
18503;SDS011;9381;54.244;10.074;2024-03-23T14:00:21;9.40;;;2.23;;
18503;SDS011;9381;54.244;10.074;2024-03-23T14:05:22;11.17;;;2.53;;
18503;SDS011;9381;54.244;10.074;2024-03-23T14:10:22;10.33;;;2.80;;
18503;SDS011;9381;54.244;10.074;2024-03-23T14:15:22;9.10;;;2.20;;
18503;SDS011;9381;54.244;10.074;2024-03-23T14:20:23;5.70;;;1.67;;
18503;SDS011;9381;54.244;10.074;2024-03-23T14:25:23;3.03;;;1.20;;
18503;SDS011;9381;54.244;10.074;2024-03-23T14:30:27;8.87;;;2.03;;
18503;SDS011;9381;54.244;10.074;2024-03-23T14:35:27;11.80;;;1.98;;
18503;SDS011;9381;54.244;10.074;2024-03-23T14:40:28;10.13;;;2.50;;
18503;SDS011;9381;54.244;10.074;2024-03-23T14:45:28;12.23;;;3.00;;
18503;SDS011;9381;54.244;10.074;2024-03-23T14:50:29;13.48;;;2.35;;
18503;SDS011;9381;54.244;10.074;2024-03-23T14:55:29;13.03;;;3.53;;
18503;SDS011;9381;54.244;10.074;2024-03-23T15:00:29;9.63;;;2.60;;
18503;SDS011;9381;54.244;10.074;2024-03-23T15:05:31;10.10;;;2.33;;
18503;SDS011;9381;54.244;10.074;2024-03-23T15:10:32;13.90;;;2.70;;
18503;SDS011;9381;54.244;10.074;2024-03-23T15:15:37;15.90;;;2.97;;
18503;SDS011;9381;54.244;10.074;2024-03-23T15:20:39;15.77;;;3.20;;
18503;SDS011;9381;54.244;10.074;2024-03-23T15:25:39;13.60;;;3.20;;
18503;SDS011;9381;54.244;10.074;2024-03-23T15:30:39;11.35;;;2.80;;
18503;SDS011;9381;54.244;10.074;2024-03-23T15:35:40;13.63;;;2.80;;
18503;SDS011;9381;54.244;10.074;2024-03-23T15:40:40;14.93;;;3.17;;
18503;SDS011;9381;54.244;10.074;2024-03-23T15:45:40;13.25;;;2.63;;
18503;SDS011;9381;54.244;10.074;2024-03-23T15:50:41;8.10;;;1.70;;
18503;SDS011;9381;54.244;10.074;2024-03-23T15:55:56;7.83;;;2.17;;
18503;SDS011;9381;54.244;10.074;2024-03-23T16:01:04;12.37;;;2.57;;
18503;SDS011;9381;54.244;10.074;2024-03-23T16:06:06;10.73;;;2.80;;
18503;SDS011;9381;54.244;10.074;2024-03-23T16:11:07;8.50;;;2.23;;
18503;SDS011;9381;54.244;10.074;2024-03-23T16:16:10;7.33;;;2.63;;
18503;SDS011;9381;54.244;10.074;2024-03-23T16:21:11;17.50;;;3.23;;
18503;SDS011;9381;54.244;10.074;2024-03-23T16:26:11;12.60;;;3.57;;
18503;SDS011;9381;54.244;10.074;2024-03-23T16:31:12;13.70;;;3.03;;
18503;SDS011;9381;54.244;10.074;2024-03-23T16:36:13;10.90;;;3.70;;
18503;SDS011;9381;54.244;10.074;2024-03-23T16:41:13;15.33;;;4.10;;
18503;SDS011;9381;54.244;10.074;2024-03-23T16:46:15;24.50;;;4.20;;
18503;SDS011;9381;54.244;10.074;2024-03-23T16:51:16;13.60;;;4.00;;
18503;SDS011;9381;54.244;10.074;2024-03-23T16:56:16;16.53;;;3.37;;
18503;SDS011;9381;54.244;10.074;2024-03-23T17:01:16;9.03;;;3.33;;
18503;SDS011;9381;54.244;10.074;2024-03-23T17:06:20;9.20;;;2.37;;
18503;SDS011;9381;54.244;10.074;2024-03-23T17:11:22;8.90;;;4.00;;
18503;SDS011;9381;54.244;10.074;2024-03-23T17:16:23;7.03;;;2.10;;
18503;SDS011;9381;54.244;10.074;2024-03-23T17:21:24;13.17;;;2.80;;
18503;SDS011;9381;54.244;10.074;2024-03-23T17:26:24;10.17;;;2.73;;
18503;SDS011;9381;54.244;10.074;2024-03-23T17:31:25;10.27;;;3.17;;
18503;SDS011;9381;54.244;10.074;2024-03-23T17:36:25;13.73;;;3.00;;
18503;SDS011;9381;54.244;10.074;2024-03-23T17:41:29;16.30;;;3.77;;
18503;SDS011;9381;54.244;10.074;2024-03-23T17:46:30;13.00;;;4.70;;
18503;SDS011;9381;54.244;10.074;2024-03-23T17:51:30;19.33;;;4.47;;
18503;SDS011;9381;54.244;10.074;2024-03-23T17:56:31;23.67;;;4.77;;
18503;SDS011;9381;54.244;10.074;2024-03-23T18:01:31;19.27;;;3.90;;
18503;SDS011;9381;54.244;10.074;2024-03-23T18:06:31;14.13;;;3.83;;
18503;SDS011;9381;54.244;10.074;2024-03-23T18:11:31;21.27;;;4.40;;
18503;SDS011;9381;54.244;10.074;2024-03-23T18:16:33;18.60;;;4.50;;
18503;SDS011;9381;54.244;10.074;2024-03-23T18:21:34;22.60;;;4.60;;
18503;SDS011;9381;54.244;10.074;2024-03-23T18:26:34;17.50;;;4.47;;
18503;SDS011;9381;54.244;10.074;2024-03-23T18:31:35;15.80;;;4.30;;
18503;SDS011;9381;54.244;10.074;2024-03-23T18:36:35;18.95;;;4.75;;
18503;SDS011;9381;54.244;10.074;2024-03-23T18:41:36;14.70;;;4.17;;
18503;SDS011;9381;54.244;10.074;2024-03-23T18:46:36;27.67;;;4.80;;
18503;SDS011;9381;54.244;10.074;2024-03-23T18:51:36;13.15;;;3.95;;
18503;SDS011;9381;54.244;10.074;2024-03-23T18:56:37;12.57;;;3.70;;
18503;SDS011;9381;54.244;10.074;2024-03-23T19:01:38;17.00;;;4.10;;
18503;SDS011;9381;54.244;10.074;2024-03-23T19:06:40;8.13;;;4.07;;
18503;SDS011;9381;54.244;10.074;2024-03-23T19:11:40;10.23;;;3.40;;
18503;SDS011;9381;54.244;10.074;2024-03-23T19:16:40;10.53;;;3.73;;
18503;SDS011;9381;54.244;10.074;2024-03-23T19:21:41;16.23;;;4.30;;
18503;SDS011;9381;54.244;10.074;2024-03-23T19:26:41;17.70;;;4.60;;
18503;SDS011;9381;54.244;10.074;2024-03-23T19:31:44;17.97;;;4.90;;
18503;SDS011;9381;54.244;10.074;2024-03-23T19:36:45;19.57;;;4.30;;
18503;SDS011;9381;54.244;10.074;2024-03-23T19:41:45;14.13;;;4.70;;
18503;SDS011;9381;54.244;10.074;2024-03-23T19:46:46;14.63;;;4.30;;
18503;SDS011;9381;54.244;10.074;2024-03-23T19:51:46;18.20;;;4.60;;
18503;SDS011;9381;54.244;10.074;2024-03-23T19:56:46;14.43;;;4.10;;
18503;SDS011;9381;54.244;10.074;2024-03-23T20:01:47;14.63;;;4.63;;
18503;SDS011;9381;54.244;10.074;2024-03-23T20:06:47;17.37;;;4.93;;
18503;SDS011;9381;54.244;10.074;2024-03-23T20:11:48;25.90;;;5.43;;
18503;SDS011;9381;54.244;10.074;2024-03-23T20:16:49;20.47;;;5.13;;
18503;SDS011;9381;54.244;10.074;2024-03-23T20:21:49;15.70;;;4.50;;
18503;SDS011;9381;54.244;10.074;2024-03-23T20:26:50;16.93;;;5.20;;
18503;SDS011;9381;54.244;10.074;2024-03-23T20:31:50;14.60;;;4.85;;
18503;SDS011;9381;54.244;10.074;2024-03-23T20:36:52;21.47;;;4.90;;
18503;SDS011;9381;54.244;10.074;2024-03-23T20:41:52;13.77;;;4.87;;
18503;SDS011;9381;54.244;10.074;2024-03-23T20:46:53;22.60;;;5.13;;
18503;SDS011;9381;54.244;10.074;2024-03-23T20:51:53;18.13;;;5.37;;
18503;SDS011;9381;54.244;10.074;2024-03-23T20:56:53;15.03;;;5.50;;
18503;SDS011;9381;54.244;10.074;2024-03-23T21:01:54;21.07;;;5.10;;
18503;SDS011;9381;54.244;10.074;2024-03-23T21:06:54;13.57;;;5.00;;
18503;SDS011;9381;54.244;10.074;2024-03-23T21:11:54;14.45;;;4.88;;
18503;SDS011;9381;54.244;10.074;2024-03-23T21:16:55;15.70;;;5.00;;
18503;SDS011;9381;54.244;10.074;2024-03-23T21:21:55;13.80;;;4.43;;
18503;SDS011;9381;54.244;10.074;2024-03-23T21:26:55;14.87;;;4.63;;
18503;SDS011;9381;54.244;10.074;2024-03-23T21:31:56;15.52;;;4.60;;
18503;SDS011;9381;54.244;10.074;2024-03-23T21:36:56;17.80;;;5.63;;
18503;SDS011;9381;54.244;10.074;2024-03-23T21:41:56;12.60;;;4.97;;
18503;SDS011;9381;54.244;10.074;2024-03-23T21:46:57;18.10;;;5.83;;
18503;SDS011;9381;54.244;10.074;2024-03-23T21:51:57;16.45;;;5.18;;
18503;SDS011;9381;54.244;10.074;2024-03-23T21:57:01;13.90;;;4.70;;
18503;SDS011;9381;54.244;10.074;2024-03-23T22:02:01;16.03;;;4.90;;
18503;SDS011;9381;54.244;10.074;2024-03-23T22:07:01;15.20;;;4.50;;
18503;SDS011;9381;54.244;10.074;2024-03-23T22:12:02;18.67;;;5.10;;
18503;SDS011;9381;54.244;10.074;2024-03-23T22:17:03;10.77;;;4.00;;
18503;SDS011;9381;54.244;10.074;2024-03-23T22:22:04;12.00;;;3.90;;
18503;SDS011;9381;54.244;10.074;2024-03-23T22:27:05;12.43;;;4.07;;
18503;SDS011;9381;54.244;10.074;2024-03-23T22:32:06;11.93;;;4.87;;
18503;SDS011;9381;54.244;10.074;2024-03-23T22:37:06;13.67;;;4.67;;
18503;SDS011;9381;54.244;10.074;2024-03-23T22:42:07;12.53;;;4.30;;
18503;SDS011;9381;54.244;10.074;2024-03-23T22:47:07;12.63;;;4.60;;
18503;SDS011;9381;54.244;10.074;2024-03-23T22:52:07;17.47;;;4.43;;
18503;SDS011;9381;54.244;10.074;2024-03-23T22:57:08;14.83;;;4.27;;
18503;SDS011;9381;54.244;10.074;2024-03-23T23:02:08;15.53;;;4.40;;
18503;SDS011;9381;54.244;10.074;2024-03-23T23:07:08;8.83;;;4.40;;
18503;SDS011;9381;54.244;10.074;2024-03-23T23:12:09;17.67;;;4.50;;
18503;SDS011;9381;54.244;10.074;2024-03-23T23:17:09;15.70;;;5.33;;
18503;SDS011;9381;54.244;10.074;2024-03-23T23:22:10;12.90;;;4.60;;
18503;SDS011;9381;54.244;10.074;2024-03-23T23:27:10;15.53;;;4.50;;
18503;SDS011;9381;54.244;10.074;2024-03-23T23:32:10;16.03;;;4.20;;
18503;SDS011;9381;54.244;10.074;2024-03-23T23:37:10;13.85;;;4.93;;
18503;SDS011;9381;54.244;10.074;2024-03-23T23:42:11;8.57;;;4.43;;
18503;SDS011;9381;54.244;10.074;2024-03-23T23:47:11;9.82;;;3.67;;
18503;SDS011;9381;54.244;10.074;2024-03-23T23:52:11;13.43;;;4.10;;
18503;SDS011;9381;54.244;10.074;2024-03-23T23:57:14;16.97;;;3.93;;
